createdAt,value
2017-12-19T00:00:57.704Z,4.00
2017-12-19T00:03:25.972Z,4.20
2017-12-19T00:05:54.216Z,4.30
2017-12-19T00:08:21.677Z,4.30
2017-12-19T00:10:49.988Z,4.20
2017-12-19T00:13:17.477Z,4.20
2017-12-19T00:15:45.702Z,4.30
2017-12-19T00:18:13.179Z,4.30
2017-12-19T00:20:41.408Z,4.10
2017-12-19T00:23:09.045Z,4.10
2017-12-19T00:25:36.504Z,4.10
2017-12-19T00:28:04.836Z,4.10
2017-12-19T00:30:32.296Z,4.10
2017-12-19T00:32:59.824Z,4.00
2017-12-19T00:35:27.416Z,4.00
2017-12-19T00:37:55.671Z,4.00
2017-12-19T00:40:23.912Z,4.00
2017-12-19T00:42:51.373Z,4.00
2017-12-19T00:45:19.621Z,3.90
2017-12-19T00:47:47.075Z,3.90
2017-12-19T00:50:15.341Z,3.90
2017-12-19T00:52:43.620Z,3.90
2017-12-19T00:55:11.140Z,3.90
2017-12-19T01:00:30.596Z,4.00
2017-12-19T01:02:58.816Z,4.10
2017-12-19T01:05:26.267Z,4.10
2017-12-19T01:07:53.736Z,4.10
2017-12-19T01:10:21.997Z,4.20
2017-12-19T01:12:50.285Z,4.30
2017-12-19T01:15:17.799Z,4.20
2017-12-19T01:17:46.036Z,4.20
2017-12-19T01:20:13.499Z,4.20
2017-12-19T01:22:40.992Z,4.20
2017-12-19T01:25:08.496Z,4.20
2017-12-19T01:27:36.711Z,4.20
2017-12-19T01:30:04.175Z,4.20
2017-12-19T01:32:31.740Z,4.30
2017-12-19T01:34:59.984Z,4.30
2017-12-19T01:37:27.532Z,4.30
2017-12-19T01:39:55.011Z,4.30
2017-12-19T01:42:22.476Z,4.30
2017-12-19T01:44:50.014Z,4.30
2017-12-19T01:47:17.470Z,4.20
2017-12-19T01:49:44.932Z,4.20
2017-12-19T01:52:12.495Z,4.20
2017-12-19T01:54:40.760Z,4.20
2017-12-19T01:57:09.014Z,4.20
2017-12-19T01:59:37.249Z,4.20
2017-12-19T02:02:04.725Z,4.20
2017-12-19T02:04:32.972Z,4.20
2017-12-19T02:07:01.233Z,4.10
2017-12-19T02:09:29.464Z,4.10
2017-12-19T02:11:56.932Z,4.10
2017-12-19T02:14:25.193Z,4.10
2017-12-19T02:16:53.420Z,4.00
2017-12-19T02:19:20.900Z,4.00
2017-12-19T02:21:49.156Z,4.00
2017-12-19T02:24:17.420Z,4.00
2017-12-19T02:26:45.673Z,4.00
2017-12-19T02:29:13.132Z,4.00
2017-12-19T02:31:41.380Z,4.00
2017-12-19T02:34:09.621Z,4.00
2017-12-19T02:36:37.093Z,4.00
2017-12-19T02:39:05.336Z,4.00
2017-12-19T02:41:33.585Z,4.00
2017-12-19T02:44:01.147Z,3.90
2017-12-19T02:46:29.413Z,4.10
2017-12-19T02:48:57.664Z,4.10
2017-12-19T02:51:25.885Z,4.10
2017-12-19T02:53:53.388Z,4.10
2017-12-19T02:56:20.848Z,4.10
2017-12-19T02:58:48.352Z,4.10
2017-12-19T03:01:16.608Z,4.10
2017-12-19T03:03:44.155Z,4.10
2017-12-19T03:06:12.398Z,4.00
2017-12-19T03:08:39.861Z,4.00
2017-12-19T03:11:08.116Z,4.00
2017-12-19T03:13:36.352Z,4.00
2017-12-19T03:16:03.832Z,4.00
2017-12-19T03:18:32.056Z,3.90
2017-12-19T03:20:59.524Z,3.90
2017-12-19T03:23:27.784Z,3.80
2017-12-19T03:25:56.007Z,3.80
2017-12-19T03:28:23.586Z,3.80
2017-12-19T03:30:51.850Z,3.90
2017-12-19T03:33:20.077Z,3.90
2017-12-19T03:35:47.543Z,3.80
2017-12-19T03:38:15.786Z,3.80
2017-12-19T03:40:43.351Z,3.80
2017-12-19T03:43:11.612Z,3.80
2017-12-19T03:45:39.888Z,3.80
2017-12-19T03:48:08.120Z,3.80
2017-12-19T03:50:35.677Z,3.80
2017-12-19T03:53:03.905Z,3.80
2017-12-19T03:55:31.372Z,3.80
2017-12-19T03:57:59.633Z,3.80
2017-12-19T04:00:27.861Z,3.90
2017-12-19T04:02:55.332Z,3.80
2017-12-19T04:05:23.568Z,3.90
2017-12-19T04:07:51.038Z,3.90
2017-12-19T04:10:19.260Z,3.90
2017-12-19T04:12:46.739Z,3.90
2017-12-19T04:15:14.965Z,4.00
2017-12-19T04:17:42.464Z,3.90
2017-12-19T04:20:09.988Z,3.90
2017-12-19T04:22:38.250Z,3.90
2017-12-19T04:25:06.604Z,3.90
2017-12-19T04:27:34.148Z,3.90
2017-12-19T04:30:02.417Z,3.90
2017-12-19T04:32:30.671Z,4.00
2017-12-19T04:34:58.932Z,4.00
2017-12-19T04:37:27.167Z,4.10
2017-12-19T04:39:54.621Z,4.00
2017-12-19T04:42:22.173Z,4.10
2017-12-19T04:44:50.487Z,4.00
2017-12-19T04:47:18.079Z,3.90
2017-12-19T04:49:46.319Z,3.90
2017-12-19T04:52:13.776Z,3.90
2017-12-19T04:54:41.236Z,3.90
2017-12-19T04:57:09.474Z,3.90
2017-12-19T04:59:36.929Z,3.90
2017-12-19T05:02:05.294Z,3.90
2017-12-19T05:04:33.553Z,4.00
2017-12-19T05:07:01.813Z,4.00
2017-12-19T05:09:30.120Z,4.00
2017-12-19T05:11:57.610Z,4.00
2017-12-19T05:14:25.837Z,4.10
2017-12-19T05:16:53.408Z,4.10
2017-12-19T05:19:20.884Z,4.10
2017-12-19T05:21:48.401Z,4.10
2017-12-19T05:24:16.661Z,4.10
2017-12-19T05:26:44.143Z,4.10
2017-12-19T05:29:11.652Z,4.10
2017-12-19T05:31:40.788Z,4.00
2017-12-19T05:36:59.620Z,4.10
2017-12-19T05:39:27.089Z,4.10
2017-12-19T05:41:54.568Z,4.10
2017-12-19T05:44:22.024Z,4.00
2017-12-19T05:46:49.536Z,4.10
2017-12-19T05:49:17.796Z,4.20
2017-12-19T05:51:46.058Z,4.20
2017-12-19T05:54:14.311Z,4.20
2017-12-19T05:56:42.540Z,4.20
2017-12-19T05:59:10.020Z,4.20
2017-12-19T06:01:38.260Z,4.20
2017-12-19T06:04:05.744Z,4.20
2017-12-19T06:06:33.260Z,4.20
2017-12-19T06:09:01.525Z,4.20
2017-12-19T06:11:29.784Z,4.10
2017-12-19T06:13:58.018Z,4.10
2017-12-19T06:16:25.642Z,4.10
2017-12-19T06:18:53.841Z,4.10
2017-12-19T06:21:21.388Z,4.10
2017-12-19T06:23:49.654Z,4.10
2017-12-19T06:26:17.883Z,4.10
2017-12-19T06:28:45.460Z,4.10
2017-12-19T06:31:13.713Z,4.10
2017-12-19T06:33:41.976Z,4.10
2017-12-19T06:36:10.231Z,4.10
2017-12-19T06:38:38.492Z,4.10
2017-12-19T06:41:06.756Z,4.10
2017-12-19T06:43:35.026Z,4.10
2017-12-19T06:46:03.276Z,4.10
2017-12-19T06:48:31.516Z,4.10
2017-12-19T06:50:59.076Z,4.00
2017-12-19T06:53:27.312Z,4.00
2017-12-19T06:55:54.780Z,4.00
2017-12-19T06:58:23.008Z,4.00
2017-12-19T07:00:50.530Z,4.00
2017-12-19T07:03:17.989Z,4.00
2017-12-19T07:05:45.467Z,4.00
2017-12-19T07:08:13.716Z,4.10
2017-12-19T07:10:41.179Z,4.10
2017-12-19T07:13:09.431Z,4.10
2017-12-19T07:15:36.932Z,4.10
2017-12-19T07:18:04.434Z,4.10
2017-12-19T07:20:32.656Z,4.10
2017-12-19T07:23:00.232Z,4.10
2017-12-19T07:25:28.456Z,4.10
2017-12-19T07:27:55.944Z,4.10
2017-12-19T07:30:24.200Z,4.10
2017-12-19T07:32:52.432Z,4.10
2017-12-19T07:35:20.000Z,4.10
2017-12-19T07:37:47.613Z,4.10
2017-12-19T07:40:14.943Z,4.10
2017-12-19T07:42:43.180Z,4.10
2017-12-19T07:45:10.736Z,4.00
2017-12-19T07:47:38.996Z,4.10
2017-12-19T07:50:07.260Z,4.10
2017-12-19T07:52:35.525Z,4.10
2017-12-19T07:55:03.757Z,4.10
2017-12-19T07:57:31.224Z,4.10
2017-12-19T07:59:59.582Z,4.20
2017-12-19T08:02:27.803Z,4.20
2017-12-19T08:04:55.268Z,4.20
2017-12-19T08:07:22.736Z,4.20
2017-12-19T08:09:50.976Z,4.20
2017-12-19T08:12:19.217Z,4.20
2017-12-19T08:14:46.785Z,4.20
2017-12-19T08:17:15.052Z,4.30
2017-12-19T08:19:43.304Z,4.20
2017-12-19T08:22:11.572Z,4.30
2017-12-19T08:24:39.828Z,4.30
2017-12-19T08:27:08.083Z,4.30
2017-12-19T08:29:36.316Z,4.30
2017-12-19T08:32:03.796Z,4.30
2017-12-19T08:34:32.044Z,4.30
2017-12-19T08:36:59.528Z,4.30
2017-12-19T08:39:27.798Z,4.30
2017-12-19T08:41:56.169Z,4.30
2017-12-19T08:44:24.477Z,4.30
2017-12-19T08:46:51.959Z,4.40
2017-12-19T08:49:20.216Z,4.40
2017-12-19T08:51:48.453Z,4.40
2017-12-19T08:54:15.926Z,4.40
2017-12-19T08:56:44.180Z,4.40
2017-12-19T08:59:12.408Z,4.40
2017-12-19T09:01:39.976Z,4.40
2017-12-19T09:04:08.227Z,4.50
2017-12-19T09:06:35.793Z,4.50
2017-12-19T09:09:04.020Z,4.50
2017-12-19T09:11:31.594Z,4.50
2017-12-19T09:13:59.823Z,4.60
2017-12-19T09:16:28.108Z,4.60
2017-12-19T09:18:56.390Z,4.70
2017-12-19T09:21:23.918Z,4.70
2017-12-19T09:23:52.221Z,4.70
2017-12-19T09:26:19.677Z,4.70
2017-12-19T09:28:47.146Z,4.70
2017-12-19T09:31:14.703Z,4.70
2017-12-19T09:33:42.957Z,4.80
2017-12-19T09:36:11.220Z,4.80
2017-12-19T09:38:38.681Z,4.80
2017-12-19T09:41:06.173Z,4.90
2017-12-19T09:43:34.436Z,4.90
2017-12-19T09:46:02.649Z,5.00
2017-12-19T09:48:30.124Z,4.90
2017-12-19T09:50:57.584Z,4.90
2017-12-19T09:53:25.815Z,5.10
2017-12-19T09:55:53.301Z,5.10
2017-12-19T09:58:20.760Z,5.10
2017-12-19T10:00:48.272Z,5.20
2017-12-19T10:03:16.520Z,5.20
2017-12-19T10:05:44.760Z,5.30
2017-12-19T10:08:12.224Z,5.30
2017-12-19T10:10:40.451Z,5.30
2017-12-19T10:13:07.915Z,5.40
2017-12-19T10:15:35.409Z,5.30
2017-12-19T10:18:02.911Z,5.40
2017-12-19T10:20:31.140Z,5.50
2017-12-19T10:22:58.708Z,5.50
2017-12-19T10:25:26.937Z,5.60
2017-12-19T10:27:54.409Z,5.60
2017-12-19T10:30:21.964Z,5.70
2017-12-19T10:32:50.316Z,5.70
2017-12-19T10:35:19.164Z,5.70
2017-12-19T10:37:46.626Z,5.70
2017-12-19T10:40:14.116Z,5.90
2017-12-19T10:42:42.348Z,6.10
2017-12-19T10:45:09.913Z,6.10
2017-12-19T10:47:38.180Z,6.20
2017-12-19T10:50:06.428Z,6.20
2017-12-19T10:52:33.978Z,6.20
2017-12-19T10:55:02.257Z,6.30
2017-12-19T10:57:29.726Z,6.30
2017-12-19T10:59:57.224Z,6.20
2017-12-19T11:02:25.455Z,6.30
2017-12-19T11:04:52.956Z,6.30
2017-12-19T11:07:20.471Z,6.30
2017-12-19T11:09:48.728Z,6.30
2017-12-19T11:12:16.985Z,6.30
2017-12-19T11:14:45.217Z,6.30
2017-12-19T11:17:12.691Z,6.30
2017-12-19T11:19:40.924Z,6.30
2017-12-19T11:22:08.386Z,6.40
2017-12-19T11:24:36.619Z,6.40
2017-12-19T11:27:04.074Z,6.40
2017-12-19T11:29:31.636Z,6.40
2017-12-19T11:31:59.861Z,6.30
2017-12-19T11:34:27.339Z,6.30
2017-12-19T11:36:54.840Z,6.40
2017-12-19T11:39:22.297Z,6.40
2017-12-19T11:41:50.644Z,6.50
2017-12-19T11:44:18.875Z,6.60
2017-12-19T11:46:46.349Z,6.60
2017-12-19T11:49:14.620Z,6.60
2017-12-19T11:51:42.848Z,6.70
2017-12-19T11:54:10.328Z,6.70
2017-12-19T11:56:37.792Z,6.70
2017-12-19T11:59:05.252Z,6.80
2017-12-19T12:01:32.718Z,6.70
2017-12-19T12:04:00.280Z,6.80
2017-12-19T12:06:28.524Z,6.80
2017-12-19T12:08:56.800Z,6.80
2017-12-19T12:11:25.024Z,6.80
2017-12-19T12:13:52.492Z,6.80
2017-12-19T12:16:19.968Z,6.90
2017-12-19T12:18:47.433Z,6.70
2017-12-19T12:21:14.904Z,6.70
2017-12-19T12:23:42.468Z,6.70
2017-12-19T12:26:10.736Z,6.70
2017-12-19T12:28:38.965Z,6.70
2017-12-19T12:31:06.513Z,6.70
2017-12-19T12:33:33.975Z,6.70
2017-12-19T12:36:02.196Z,6.80
2017-12-19T12:38:29.664Z,6.70
2017-12-19T12:40:57.145Z,6.80
2017-12-19T12:43:25.404Z,6.70
2017-12-19T12:45:52.957Z,6.80
2017-12-19T12:48:21.216Z,6.90
2017-12-19T12:50:49.469Z,6.90
2017-12-19T12:53:17.732Z,6.90
2017-12-19T12:55:46.096Z,6.90
2017-12-19T12:58:14.352Z,6.90
2017-12-19T13:00:42.600Z,7.00
2017-12-19T13:03:10.065Z,7.00
2017-12-19T13:05:38.287Z,7.10
2017-12-19T13:08:05.858Z,7.00
2017-12-19T13:10:34.084Z,7.00
2017-12-19T13:13:01.557Z,7.00
2017-12-19T13:15:29.796Z,7.00
2017-12-19T13:17:57.273Z,7.00
2017-12-19T13:20:25.525Z,7.00
2017-12-19T13:22:53.748Z,7.00
2017-12-19T13:25:21.216Z,7.00
2017-12-19T13:27:48.763Z,7.00
2017-12-19T13:30:17.028Z,6.90
2017-12-19T13:32:45.283Z,6.90
2017-12-19T13:35:13.545Z,6.90
2017-12-19T13:37:41.798Z,6.90
2017-12-19T13:40:09.856Z,6.90
2017-12-19T13:42:38.120Z,7.00
2017-12-19T13:45:06.385Z,6.90
2017-12-19T13:47:34.609Z,6.90
2017-12-19T13:50:02.073Z,6.90
2017-12-19T13:52:29.532Z,6.90
2017-12-19T13:54:57.798Z,6.90
2017-12-19T13:57:26.021Z,7.00
2017-12-19T13:59:53.484Z,7.00
2017-12-19T14:02:21.741Z,7.10
2017-12-19T14:04:50.004Z,7.10
2017-12-19T14:07:18.225Z,7.10
2017-12-19T14:09:45.725Z,7.10
2017-12-19T14:12:13.178Z,7.10
2017-12-19T14:14:40.691Z,7.20
2017-12-19T14:17:09.101Z,7.20
2017-12-19T14:19:36.596Z,7.20
2017-12-19T14:22:04.824Z,7.10
2017-12-19T14:24:32.396Z,7.10
2017-12-19T14:26:59.940Z,7.10
2017-12-19T14:29:28.181Z,7.00
2017-12-19T14:31:55.668Z,7.00
2017-12-19T14:34:23.132Z,7.00
2017-12-19T14:36:50.601Z,7.10
2017-12-19T14:39:18.947Z,7.00
2017-12-19T14:41:47.171Z,7.00
2017-12-19T14:44:14.632Z,7.00
2017-12-19T14:46:42.188Z,7.00
2017-12-19T14:49:10.419Z,7.00
2017-12-19T14:51:37.890Z,6.90
2017-12-19T14:54:06.133Z,7.00
2017-12-19T14:56:33.694Z,7.00
2017-12-19T14:59:01.963Z,6.90
2017-12-19T15:01:30.318Z,6.90
2017-12-19T15:03:58.540Z,6.90
2017-12-19T15:06:26.001Z,6.90
2017-12-19T15:08:53.473Z,6.90
2017-12-19T15:11:21.008Z,7.00
2017-12-19T15:13:49.256Z,7.00
2017-12-19T15:16:17.492Z,6.90
2017-12-19T15:18:44.983Z,6.90
2017-12-19T15:21:12.503Z,7.00
2017-12-19T15:23:40.740Z,6.90
2017-12-19T15:26:08.308Z,6.90
2017-12-19T15:28:36.533Z,7.00
2017-12-19T15:31:04.016Z,6.90
2017-12-19T15:33:32.248Z,7.00
2017-12-19T15:35:59.715Z,7.00
2017-12-19T15:38:27.259Z,7.00
2017-12-19T15:40:55.516Z,7.00
2017-12-19T15:43:23.776Z,7.00
2017-12-19T15:45:52.038Z,7.00
2017-12-19T15:48:20.270Z,7.00
2017-12-19T15:50:47.836Z,7.00
2017-12-19T15:53:16.068Z,7.00
2017-12-19T15:55:43.524Z,7.00
2017-12-19T15:58:11.085Z,7.00
2017-12-19T16:00:39.312Z,7.00
2017-12-19T16:03:06.887Z,7.00
2017-12-19T16:05:34.348Z,7.00
2017-12-19T16:08:01.829Z,7.00
2017-12-19T16:10:29.292Z,6.90
2017-12-19T16:12:56.753Z,7.00
2017-12-19T16:15:24.993Z,7.00
2017-12-19T16:17:52.456Z,7.00
2017-12-19T16:20:20.710Z,7.00
2017-12-19T16:22:48.363Z,7.00
2017-12-19T16:25:16.596Z,6.90
2017-12-19T16:27:44.159Z,6.90
2017-12-19T16:30:11.628Z,6.90
2017-12-19T16:32:39.093Z,7.00
2017-12-19T16:35:06.595Z,7.00
2017-12-19T16:37:34.049Z,7.00
2017-12-19T16:40:02.294Z,7.00
2017-12-19T16:42:30.556Z,7.10
2017-12-19T16:44:58.788Z,7.10
2017-12-19T16:47:26.256Z,7.00
2017-12-19T16:49:54.486Z,7.00
2017-12-19T16:52:21.952Z,7.00
2017-12-19T16:54:50.196Z,7.00
2017-12-19T16:57:17.653Z,7.00
2017-12-19T16:59:46.066Z,7.10
2017-12-19T17:02:14.261Z,7.00
2017-12-19T17:04:41.808Z,7.00
2017-12-19T17:07:09.369Z,7.00
2017-12-19T17:09:37.639Z,7.00
2017-12-19T17:12:05.868Z,7.00
2017-12-19T17:14:33.356Z,7.00
2017-12-19T17:17:00.873Z,7.00
2017-12-19T17:19:29.137Z,6.90
2017-12-19T17:21:57.365Z,6.90
2017-12-19T17:24:24.940Z,6.90
2017-12-19T17:26:53.226Z,6.90
2017-12-19T17:29:20.744Z,6.90
2017-12-19T17:31:48.976Z,6.90
2017-12-19T17:34:16.544Z,6.90
2017-12-19T17:36:44.804Z,6.90
2017-12-19T17:39:13.036Z,6.80
2017-12-19T17:41:40.496Z,6.80
2017-12-19T17:44:08.040Z,6.80
2017-12-19T17:46:35.588Z,6.80
2017-12-19T17:49:03.072Z,6.80
2017-12-19T17:51:30.554Z,6.80
2017-12-19T17:53:58.008Z,6.70
2017-12-19T17:56:25.555Z,6.70
2017-12-19T17:58:53.823Z,6.70
2017-12-19T18:01:22.080Z,6.70
2017-12-19T18:03:50.441Z,6.70
2017-12-19T18:06:18.673Z,6.60
2017-12-19T18:08:46.129Z,6.60
2017-12-19T18:11:14.400Z,6.60
2017-12-19T18:13:42.633Z,6.60
2017-12-19T18:16:10.106Z,6.60
2017-12-19T18:18:38.369Z,6.70
2017-12-19T18:24:06.117Z,6.70
2017-12-19T18:26:34.344Z,6.70
2017-12-19T18:29:01.821Z,6.70
2017-12-19T18:31:29.359Z,6.70
2017-12-19T18:33:57.588Z,6.60
2017-12-19T18:36:25.072Z,6.60
2017-12-19T18:38:55.325Z,6.70
2017-12-19T18:41:27.700Z,6.60
2017-12-19T18:43:55.902Z,6.60
2017-12-19T18:46:25.079Z,6.50
2017-12-19T18:48:53.325Z,6.50
2017-12-19T18:51:21.610Z,6.40
2017-12-19T18:53:49.866Z,6.40
2017-12-19T18:56:18.252Z,6.40
2017-12-19T18:58:45.822Z,6.50
2017-12-19T19:01:13.252Z,6.50
2017-12-19T19:03:40.737Z,6.40
2017-12-19T19:06:08.976Z,6.40
2017-12-19T19:08:37.155Z,6.40
2017-12-19T19:11:04.623Z,6.40
2017-12-19T19:13:32.115Z,6.40
2017-12-19T19:15:59.581Z,6.40
2017-12-19T19:18:27.868Z,6.50
2017-12-19T19:20:55.390Z,6.40
2017-12-19T19:23:24.411Z,6.40
2017-12-19T19:25:51.881Z,6.40
2017-12-19T19:28:19.453Z,6.30
2017-12-19T19:30:47.718Z,6.40
2017-12-19T19:33:16.660Z,6.40
2017-12-19T19:35:44.129Z,6.40
2017-12-19T19:38:13.357Z,6.30
2017-12-19T19:40:40.875Z,6.30
2017-12-19T19:43:08.352Z,6.40
2017-12-19T19:45:36.926Z,6.40
2017-12-19T19:48:06.176Z,6.40
2017-12-19T19:50:41.288Z,6.40
2017-12-19T19:53:09.176Z,6.40
2017-12-19T19:55:36.653Z,6.40
2017-12-19T19:58:04.314Z,6.40
2017-12-19T20:00:32.551Z,6.40
2017-12-19T20:03:00.579Z,6.40
2017-12-19T20:05:28.183Z,6.50
2017-12-19T20:07:56.435Z,6.40
2017-12-19T20:10:24.673Z,6.40
2017-12-19T20:12:52.152Z,6.40
2017-12-19T20:15:27.195Z,6.50
2017-12-19T20:17:55.148Z,6.50
2017-12-19T20:20:22.854Z,6.50
2017-12-19T20:22:51.371Z,6.50
2017-12-19T20:25:19.934Z,6.50
2017-12-19T20:27:51.609Z,6.50
2017-12-19T20:30:19.085Z,6.50
2017-12-19T20:32:46.567Z,6.60
2017-12-19T20:35:14.105Z,6.50
2017-12-19T20:37:42.476Z,6.50
2017-12-19T20:40:10.020Z,6.60
2017-12-19T20:42:37.488Z,6.60
2017-12-19T20:45:05.099Z,6.60
2017-12-19T20:47:32.604Z,6.60
2017-12-19T20:50:00.107Z,6.70
2017-12-19T20:52:28.475Z,6.60
2017-12-19T20:55:00.529Z,6.60
2017-12-19T20:57:31.252Z,6.60
2017-12-19T20:59:58.726Z,6.60
2017-12-19T21:02:26.984Z,6.60
2017-12-19T21:04:55.340Z,6.60
2017-12-19T21:07:24.040Z,6.60
2017-12-19T21:09:51.576Z,6.60
2017-12-19T21:12:19.058Z,6.60
2017-12-19T21:14:46.674Z,6.60
2017-12-19T21:17:14.194Z,6.70
2017-12-19T21:19:42.444Z,6.60
2017-12-19T21:22:10.725Z,6.70
2017-12-19T21:24:38.188Z,6.70
2017-12-19T21:27:06.144Z,6.70
2017-12-19T21:29:34.097Z,6.70
2017-12-19T21:32:02.611Z,6.60
2017-12-19T21:34:30.170Z,6.60
2017-12-19T21:36:58.407Z,6.50
2017-12-19T21:39:25.871Z,6.50
2017-12-19T21:41:54.097Z,6.50
2017-12-19T21:44:21.946Z,6.50
2017-12-19T21:46:49.423Z,6.50
2017-12-19T21:49:17.654Z,6.50
2017-12-19T21:51:45.212Z,6.40
2017-12-19T21:54:12.689Z,6.40
2017-12-19T21:56:40.996Z,6.40
2017-12-19T21:59:08.470Z,6.40
2017-12-19T22:01:37.658Z,6.40
2017-12-19T22:04:05.896Z,6.40
2017-12-19T22:06:33.352Z,6.40
2017-12-19T22:09:01.617Z,6.40
2017-12-19T22:11:29.865Z,6.40
2017-12-19T22:13:58.092Z,6.40
2017-12-19T22:16:25.565Z,6.40
2017-12-19T22:18:53.830Z,6.30
2017-12-19T22:21:22.068Z,6.30
2017-12-19T22:23:49.535Z,6.30
2017-12-19T22:26:18.204Z,6.30
2017-12-19T22:28:46.428Z,6.30
2017-12-19T22:31:14.000Z,6.30
2017-12-19T22:33:42.465Z,6.40
2017-12-19T22:36:10.981Z,6.40
2017-12-19T22:38:40.188Z,6.40
2017-12-19T22:41:07.651Z,6.40
2017-12-19T22:43:35.124Z,6.40
2017-12-19T22:46:02.644Z,6.40
2017-12-19T22:48:30.909Z,6.40
2017-12-19T22:50:59.179Z,6.40
2017-12-19T22:53:27.401Z,6.40
2017-12-19T22:55:54.859Z,6.40
2017-12-19T22:58:23.120Z,6.50
2017-12-19T23:00:51.427Z,6.60
2017-12-19T23:03:18.863Z,6.50
2017-12-19T23:05:46.365Z,6.60
2017-12-19T23:08:14.996Z,6.70
2017-12-19T23:10:42.479Z,6.60
2017-12-19T23:13:10.713Z,6.60
2017-12-19T23:15:39.100Z,6.50
2017-12-19T23:18:06.648Z,6.50
2017-12-19T23:20:34.917Z,6.50
2017-12-19T23:23:03.522Z,6.40
2017-12-19T23:25:30.975Z,6.40
2017-12-19T23:27:58.938Z,6.40
2017-12-19T23:30:26.400Z,6.40
2017-12-19T23:32:53.868Z,6.40
2017-12-19T23:35:21.396Z,6.40
2017-12-19T23:37:49.616Z,6.30
2017-12-19T23:40:17.071Z,6.30
2017-12-19T23:42:44.539Z,6.40
2017-12-19T23:45:13.388Z,6.40
2017-12-19T23:47:41.216Z,6.30
2017-12-19T23:50:08.668Z,6.40
2017-12-19T23:52:36.156Z,6.50
2017-12-19T23:55:04.388Z,6.50
2017-12-19T23:57:31.949Z,6.50
2017-12-19T23:59:59.444Z,6.50
